TimeCST,TemperatureF,Dew PointF,Humidity,Sea Level PressureIn,VisibilityMPH,Wind Direction,Wind SpeedMPH,Gust SpeedMPH,PrecipitationIn,Events,Conditions,WindDirDegrees,DateUTC
12:53 AM,7.0,-5.1,58,30.42,10.0,NNW,11.5,-,N/A,,Clear,340,2013-01-24 06:53:00
1:53 AM,6.1,-5.1,60,30.46,10.0,NNW,11.5,-,N/A,,Clear,330,2013-01-24 07:53:00
2:53 AM,5.0,-6.0,61,30.49,10.0,NNW,9.2,-,N/A,,Clear,330,2013-01-24 08:53:00
3:53 AM,3.9,-7.1,60,30.53,10.0,NW,9.2,-,N/A,,Clear,320,2013-01-24 09:53:00
4:53 AM,3.9,-7.1,60,30.56,10.0,WNW,10.4,-,N/A,,Clear,300,2013-01-24 10:53:00
6:53 AM,3.0,-7.1,63,30.60,10.0,NW,10.4,-,N/A,,Clear,320,2013-01-24 12:53:00
7:53 AM,3.0,-7.1,63,30.62,10.0,NW,11.5,-,N/A,,Clear,320,2013-01-24 13:53:00
8:53 AM,6.1,-4.0,63,30.65,10.0,NNW,12.7,-,N/A,,Clear,330,2013-01-24 14:53:00
9:53 AM,9.0,-0.9,64,30.66,10.0,NNW,9.2,-,N/A,,Clear,340,2013-01-24 15:53:00
10:53 AM,12.0,1.9,64,30.65,10.0,NNW,6.9,-,N/A,,Clear,330,2013-01-24 16:53:00
11:53 AM,16.0,3.9,59,30.63,10.0,North,8.1,-,N/A,,Clear,350,2013-01-24 17:53:00
12:53 PM,18.0,6.1,60,30.60,10.0,NNW,4.6,-,N/A,,Clear,330,2013-01-24 18:53:00
1:53 PM,19.0,5.0,54,30.58,10.0,Variable,3.5,-,N/A,,Overcast,0,2013-01-24 19:53:00
2:27 PM,19.4,3.2,49,30.52,10.0,Calm,Calm,-,N/A,,Overcast,0,2013-01-24 20:27:00
2:53 PM,19.0,3.9,52,30.58,10.0,Calm,Calm,-,N/A,,Overcast,0,2013-01-24 20:53:00
3:53 PM,19.0,6.1,57,30.57,8.0,Calm,Calm,-,0.00,,Overcast,0,2013-01-24 21:53:00
4:53 PM,19.0,7.0,59,30.55,10.0,SSW,3.5,-,N/A,,Scattered Clouds,200,2013-01-24 22:53:00
5:53 PM,19.0,7.0,59,30.54,10.0,SSW,3.5,-,N/A,,Partly Cloudy,200,2013-01-24 23:53:00
6:53 PM,19.0,7.0,59,30.51,10.0,Calm,Calm,-,N/A,,Mostly Cloudy,0,2013-01-25 00:53:00
7:53 PM,19.0,7.0,59,30.48,10.0,SE,4.6,-,N/A,,Overcast,140,2013-01-25 01:53:00
8:53 PM,19.9,6.1,55,30.46,10.0,SSW,5.8,-,N/A,,Overcast,200,2013-01-25 02:53:00
9:53 PM,19.9,5.0,52,30.44,10.0,South,6.9,-,N/A,,Clear,180,2013-01-25 03:53:00
10:53 PM,19.9,3.9,50,30.42,10.0,South,5.8,-,N/A,,Partly Cloudy,180,2013-01-25 04:53:00
11:53 PM,19.9,3.0,48,30.40,10.0,South,8.1,-,N/A,,Overcast,190,2013-01-25 05:53:00